createdAt,value
2019-04-27T00:00:03.702Z,80.85
2019-04-27T00:00:32.766Z,80.85
2019-04-27T00:00:58.020Z,80.85
2019-04-27T00:01:53.696Z,80.47
2019-04-27T00:02:22.949Z,81.04
2019-04-27T00:03:41.510Z,80.85
2019-04-27T00:04:11.635Z,81.14
2019-04-27T00:05:33.211Z,80.85
2019-04-27T00:05:58.509Z,80.95
2019-04-27T00:06:51.786Z,80.85
2019-04-27T00:07:21.119Z,81.14
2019-04-27T00:08:40.525Z,80.57
2019-04-27T00:10:03.465Z,80.76
2019-04-27T00:10:30.030Z,80.95
2019-04-27T00:11:53.042Z,80.66
2019-04-27T00:12:22.391Z,81.38
2019-04-27T00:13:43.754Z,82.63
2019-04-27T00:14:10.260Z,82.43
2019-04-27T00:15:34.376Z,82.72
2019-04-27T00:15:58.734Z,82.06
2019-04-27T00:16:51.184Z,82.06
2019-04-27T00:17:19.390Z,82.43
2019-04-27T00:18:40.866Z,82.15
2019-04-27T00:19:08.977Z,83.01
2019-04-27T00:20:30.361Z,82.24
2019-04-27T00:21:49.794Z,82.63
2019-04-27T00:23:09.274Z,83.11
2019-04-27T00:24:03.274Z,82.82
2019-04-27T00:24:28.711Z,82.91
2019-04-27T00:25:21.025Z,82.91
2019-04-27T00:25:48.146Z,83.01
2019-04-27T00:26:40.458Z,82.82
2019-04-27T00:28:00.451Z,83.29
2019-04-27T00:28:28.266Z,83.58
2019-04-27T00:29:20.563Z,83.48
2019-04-27T00:29:48.444Z,83.67
2019-04-27T00:30:40.746Z,83.48
2019-04-27T00:32:00.200Z,83.39
2019-04-27T00:32:58.825Z,83.29
2019-04-27T00:33:25.947Z,83.2
2019-04-27T00:33:53.543Z,83.58
2019-04-27T00:34:19.258Z,83.29
2019-04-27T00:35:11.574Z,83.01
2019-04-27T00:35:38.693Z,83.29
2019-04-27T00:36:30.976Z,83.11
2019-04-27T00:36:58.720Z,83.01
2019-04-27T00:37:51.044Z,83.01
2019-04-27T00:38:18.168Z,83.2
2019-04-27T00:39:10.458Z,83.11
2019-04-27T00:40:30.381Z,83.11
2019-04-27T00:41:24.216Z,83.2
2019-04-27T00:41:49.808Z,82.82
2019-04-27T00:43:09.226Z,82.86
2019-04-27T00:44:03.256Z,83.24
2019-04-27T00:44:28.625Z,82.53
2019-04-27T00:45:20.912Z,83.05
2019-04-27T00:45:48.062Z,83.14
2019-04-27T00:46:40.339Z,83.53
2019-04-27T00:48:00.734Z,83.11
2019-04-27T00:48:27.864Z,83.48
2019-04-27T00:49:20.346Z,84.06
2019-04-27T00:50:39.724Z,84.92
2019-04-27T00:51:59.156Z,84.82
2019-04-27T00:52:52.757Z,84.53
2019-04-27T00:53:19.102Z,84.16
2019-04-27T00:54:11.384Z,84.72
2019-04-27T00:54:38.509Z,85.39
2019-04-27T00:55:30.808Z,85.58
2019-04-27T00:56:50.221Z,85.49
2019-04-27T00:58:10.178Z,85.87
2019-04-27T00:59:29.593Z,85.83
2019-04-27T01:00:23.409Z,86.59
2019-04-27T01:00:49.003Z,86.49
2019-04-27T01:01:41.319Z,87.07
2019-04-27T01:02:08.439Z,86.98
2019-04-27T01:03:00.724Z,87.26
2019-04-27T01:03:27.847Z,87.02
2019-04-27T01:04:20.145Z,86.44
2019-04-27T01:05:39.955Z,86.21
2019-04-27T01:06:59.389Z,86.59
2019-04-27T01:07:53.552Z,87.45
2019-04-27T01:08:18.799Z,87.64
2019-04-27T01:09:11.081Z,87.16
2019-04-27T01:09:38.207Z,87.64
2019-04-27T01:10:30.495Z,87.16
2019-04-27T01:11:49.905Z,86.73
2019-04-27T01:13:09.320Z,86.35
2019-04-27T01:14:01.604Z,85.87
2019-04-27T01:14:28.544Z,86.06
2019-04-27T01:15:20.889Z,86.25
2019-04-27T01:15:48.007Z,86.54
2019-04-27T01:16:42.272Z,86.25
2019-04-27T01:17:09.390Z,85.87
2019-04-27T01:18:11.883Z,85.77
2019-04-27T01:18:29.819Z,85.87
2019-04-27T01:19:22.131Z,85.97
2019-04-27T01:19:49.440Z,85.77
2019-04-27T01:20:41.689Z,85.77
2019-04-27T01:21:09.215Z,85.49
2019-04-27T01:22:01.121Z,86.4
2019-04-27T01:23:21.311Z,87.35
2019-04-27T01:24:40.929Z,87.16
2019-04-27T01:26:01.320Z,87.64
2019-04-27T01:27:21.337Z,87.74
2019-04-27T01:28:41.589Z,87.93
2019-04-27T01:29:07.774Z,87.54
2019-04-27T01:30:02.059Z,87.45
2019-04-27T01:30:29.175Z,87.64
2019-04-27T01:31:21.521Z,87.16
2019-04-27T01:32:42.697Z,87.35
2019-04-27T01:33:10.093Z,87.16
2019-04-27T01:34:02.368Z,86.88
2019-04-27T01:34:29.635Z,86.78
2019-04-27T01:35:21.871Z,87.45
2019-04-27T01:35:49.124Z,87.93
2019-04-27T01:36:41.714Z,87.64
2019-04-27T01:37:09.386Z,88.02
2019-04-27T01:38:02.141Z,87.83
2019-04-27T01:38:29.265Z,88.5
2019-04-27T01:39:22.589Z,88.12
2019-04-27T01:39:50.388Z,88.4
2019-04-27T01:40:42.748Z,88.5
2019-04-27T01:41:10.867Z,88.12
2019-04-27T01:42:31.265Z,88.21
2019-04-27T01:43:51.177Z,88.21
2019-04-27T01:45:11.748Z,88.12
2019-04-27T01:45:39.089Z,88.4
2019-04-27T01:46:32.146Z,88.88
2019-04-27T01:46:59.862Z,88.4
2019-04-27T01:47:52.200Z,88.59
2019-04-27T01:48:23.447Z,88.69
2019-04-27T01:49:12.600Z,88.31
2019-04-27T01:49:39.837Z,88.5
2019-04-27T01:50:32.072Z,88.59
2019-04-27T01:50:59.387Z,88.78
2019-04-27T01:51:52.459Z,88.88
2019-04-27T01:52:20.142Z,88.78
2019-04-27T01:53:12.717Z,88.78
2019-04-27T01:53:40.832Z,89.07
2019-04-27T01:55:00.258Z,89.26
2019-04-27T01:55:52.541Z,89.45
2019-04-27T01:56:19.694Z,89.36
2019-04-27T01:57:40.098Z,90.17
2019-04-27T01:58:32.376Z,90.36
2019-04-27T01:58:59.491Z,91.03
2019-04-27T01:59:51.847Z,91.22
2019-04-27T02:00:19.313Z,91.31
2019-04-27T02:01:11.306Z,91.03
2019-04-27T02:02:31.498Z,90.93
2019-04-27T02:03:52.141Z,91.22
2019-04-27T02:04:19.500Z,90.84
2019-04-27T02:05:12.321Z,91.22
2019-04-27T02:05:39.102Z,90.55
2019-04-27T02:06:31.403Z,90.84
2019-04-27T02:07:51.021Z,91.41
2019-04-27T02:09:10.210Z,90.84
2019-04-27T02:10:02.501Z,90.84
2019-04-27T02:10:29.756Z,90.17
2019-04-27T02:11:22.042Z,90.55
2019-04-27T02:11:49.014Z,90.55
2019-04-27T02:12:43.833Z,90.64
2019-04-27T02:13:09.207Z,90.55
2019-04-27T02:14:01.518Z,90.26
2019-04-27T02:15:21.142Z,90.17
2019-04-27T02:16:41.123Z,90.26
2019-04-27T02:18:01.231Z,89.4
2019-04-27T02:18:35.417Z,89.31
2019-04-27T02:19:21.961Z,89.31
2019-04-27T02:19:49.366Z,89.54
2019-04-27T02:20:44.292Z,89.31
2019-04-27T02:21:09.094Z,89.12
2019-04-27T02:22:02.086Z,89.98
2019-04-27T02:22:29.672Z,89.5
2019-04-27T02:23:22.171Z,89.69
2019-04-27T02:23:49.763Z,89.6
2019-04-27T02:24:42.619Z,89.6
2019-04-27T02:25:09.739Z,89.4
2019-04-27T02:26:30.971Z,89.31
2019-04-27T02:27:50.118Z,89.6
2019-04-27T02:28:42.452Z,89.5
2019-04-27T02:29:08.974Z,89.22
2019-04-27T02:30:01.333Z,89.6
2019-04-27T02:31:22.272Z,90.17
2019-04-27T02:31:50.029Z,90.45
2019-04-27T02:32:41.740Z,90.26
2019-04-27T02:33:09.789Z,89.79
2019-04-27T02:34:02.189Z,89.6
2019-04-27T02:34:30.141Z,89.6
2019-04-27T02:35:22.649Z,89.6
2019-04-27T02:35:50.823Z,89.79
2019-04-27T02:36:20.153Z,89.4
2019-04-27T02:37:41.089Z,89.98
2019-04-27T02:39:01.552Z,89.79
2019-04-27T02:39:29.733Z,89.22
2019-04-27T02:40:21.807Z,89.22
2019-04-27T02:40:49.548Z,89.12
2019-04-27T02:41:41.902Z,89.31
2019-04-27T02:42:10.085Z,88.55
2019-04-27T02:43:31.345Z,89.03
2019-04-27T02:44:51.458Z,89.12
2019-04-27T02:46:11.752Z,88.36
2019-04-27T02:46:39.432Z,88.74
2019-04-27T02:47:31.950Z,88.84
2019-04-27T02:47:59.769Z,88.93
2019-04-27T02:48:59.962Z,88.64
2019-04-27T02:49:21.259Z,88.84
2019-04-27T02:50:41.695Z,88.84
2019-04-27T02:51:09.808Z,88.84
2019-04-27T02:52:30.312Z,88.84
2019-04-27T02:53:50.793Z,88.26
2019-04-27T02:54:20.301Z,88.84
2019-04-27T02:55:11.839Z,88.74
2019-04-27T02:55:39.647Z,88.55
2019-04-27T02:56:31.919Z,88.45
2019-04-27T02:56:59.318Z,88.45
2019-04-27T02:57:52.183Z,88.74
2019-04-27T02:58:21.395Z,88.93
2019-04-27T02:59:41.678Z,88.84
2019-04-27T03:00:10.184Z,88.93
2019-04-27T03:01:30.954Z,88.45
2019-04-27T03:02:00.703Z,88.07
2019-04-27T03:02:52.402Z,88.45
2019-04-27T03:03:20.328Z,87.98
2019-04-27T03:04:12.720Z,87.98
2019-04-27T03:04:40.830Z,87.98
2019-04-27T03:06:01.287Z,88.17
2019-04-27T03:07:22.059Z,87.5
2019-04-27T03:07:50.278Z,87.98
2019-04-27T03:08:42.902Z,88.17
2019-04-27T03:09:10.967Z,88.26
2019-04-27T03:10:30.830Z,87.88
2019-04-27T03:11:51.285Z,87.88
2019-04-27T03:13:11.683Z,87.88
2019-04-27T03:13:40.308Z,87.79
2019-04-27T03:15:01.503Z,87.5
2019-04-27T03:15:30.517Z,87.6
2019-04-27T03:16:50.353Z,87.31
2019-04-27T03:18:11.082Z,87.69
2019-04-27T03:18:40.281Z,87.79
2019-04-27T03:20:02.385Z,87.98
2019-04-27T03:20:30.126Z,88.07
2019-04-27T03:21:50.738Z,88.36
2019-04-27T03:23:10.824Z,88.17
2019-04-27T03:24:31.801Z,88.07
2019-04-27T03:24:59.975Z,88.64
2019-04-27T03:25:51.279Z,88.74
2019-04-27T03:27:11.763Z,87.79
2019-04-27T03:27:40.185Z,87.88
2019-04-27T03:29:01.258Z,87.88
2019-04-27T03:29:30.581Z,87.79
2019-04-27T03:30:23.775Z,88.07
2019-04-27T03:30:52.544Z,87.98
2019-04-27T03:31:21.341Z,88.45
2019-04-27T03:31:53.798Z,88.45
2019-04-27T03:33:12.604Z,88.64
2019-04-27T03:33:42.743Z,88.74
2019-04-27T03:34:11.798Z,88.84
2019-04-27T03:34:41.345Z,88.84
2019-04-27T03:36:32.149Z,89.22
2019-04-27T03:36:59.800Z,89.31
2019-04-27T03:37:52.330Z,89.89
2019-04-27T03:38:19.857Z,89.55
2019-04-27T03:39:12.208Z,89.36
2019-04-27T03:39:39.770Z,89.75
2019-04-27T03:40:32.127Z,89.4
2019-04-27T03:41:00.447Z,89.4
2019-04-27T03:41:53.013Z,89.75
2019-04-27T03:42:20.944Z,89.31
2019-04-27T03:43:40.454Z,89.55
2019-04-27T03:44:32.689Z,89.31
2019-04-27T03:45:00.793Z,89.75
2019-04-27T03:46:20.946Z,89.94
2019-04-27T03:47:41.322Z,89.84
2019-04-27T03:49:01.793Z,89.75
2019-04-27T03:49:37.639Z,88.98
2019-04-27T03:50:52.745Z,89.55
2019-04-27T03:51:20.634Z,89.26
2019-04-27T03:52:40.784Z,89.03
2019-04-27T03:54:00.929Z,89.07
2019-04-27T03:55:20.922Z,88.93
2019-04-27T03:56:41.083Z,88.79
2019-04-27T03:57:09.870Z,88.36
2019-04-27T03:58:01.820Z,88.03
2019-04-27T03:58:30.391Z,88.51
2019-04-27T03:59:21.675Z,88.89
2019-04-27T03:59:50.591Z,89.07
2019-04-27T04:00:42.663Z,88.89
2019-04-27T04:01:10.506Z,88.79
2019-04-27T04:02:02.915Z,88.89
2019-04-27T04:02:30.507Z,89.36
2019-04-27T04:03:22.412Z,89.17
2019-04-27T04:03:50.190Z,88.6
2019-04-27T04:05:11.450Z,88.7
2019-04-27T04:06:31.855Z,88.51
2019-04-27T04:06:59.623Z,88.51
2019-04-27T04:07:51.503Z,88.6
2019-04-27T04:09:11.337Z,88.89
2019-04-27T04:10:31.774Z,89.07
2019-04-27T04:10:59.601Z,88.98
2019-04-27T04:11:52.199Z,88.7
2019-04-27T04:12:19.713Z,88.98
2019-04-27T04:13:12.406Z,89.36
2019-04-27T04:13:39.824Z,89.65
2019-04-27T04:14:32.149Z,89.07
2019-04-27T04:15:00.075Z,89.65
2019-04-27T04:15:52.309Z,89.84
2019-04-27T04:16:20.153Z,90.12
2019-04-27T04:17:41.502Z,89.55
2019-04-27T04:19:01.933Z,90.22
2019-04-27T04:19:29.826Z,90.41
2019-04-27T04:20:22.778Z,89.75
2019-04-27T04:20:50.929Z,90.12
2019-04-27T04:22:10.497Z,90.79
2019-04-27T04:23:03.231Z,90.98
2019-04-27T04:23:30.167Z,90.79
2019-04-27T04:24:22.426Z,90.98
2019-04-27T04:24:50.610Z,90.6
2019-04-27T04:26:11.122Z,89.94
2019-04-27T04:26:40.170Z,89.55
2019-04-27T04:27:32.309Z,89.17
2019-04-27T04:28:00.532Z,89.17
2019-04-27T04:29:21.129Z,88.89
2019-04-27T04:30:41.550Z,89.17
2019-04-27T04:31:12.810Z,89.55
2019-04-27T04:32:30.110Z,89.07
2019-04-27T04:33:50.588Z,89.17
2019-04-27T04:35:11.493Z,89.17
2019-04-27T04:36:31.315Z,89.07
2019-04-27T04:37:52.676Z,89.07
2019-04-27T04:39:12.391Z,89.65
2019-04-27T04:39:40.638Z,89.75
2019-04-27T04:40:09.762Z,89.65
2019-04-27T04:41:02.097Z,89.65
2019-04-27T04:41:30.337Z,89.46
2019-04-27T04:42:22.530Z,89.65
2019-04-27T04:42:50.030Z,89.75
2019-04-27T04:44:12.440Z,89.65
2019-04-27T04:45:30.966Z,90.03
2019-04-27T04:46:50.789Z,89.17
2019-04-27T04:48:10.803Z,89.26
2019-04-27T04:49:30.408Z,90.03
2019-04-27T04:50:52.850Z,89.36
2019-04-27T04:51:20.717Z,89.36
2019-04-27T04:52:42.377Z,88.7
2019-04-27T04:54:01.203Z,89.26
2019-04-27T04:54:29.869Z,89.17
2019-04-27T04:55:22.615Z,89.36
2019-04-27T04:55:49.772Z,89.75
2019-04-27T04:56:42.251Z,89.31
2019-04-27T04:57:09.467Z,88.89
2019-04-27T04:58:02.724Z,88.03
2019-04-27T04:58:30.861Z,88.41
2019-04-27T04:59:51.371Z,88.89
2019-04-27T05:01:10.402Z,88.89
2019-04-27T05:02:02.714Z,88.51
2019-04-27T05:02:29.845Z,89.17
2019-04-27T05:03:22.148Z,89.17
2019-04-27T05:03:49.271Z,88.79
2019-04-27T05:04:41.558Z,89.17
2019-04-27T05:05:09.345Z,89.36
2019-04-27T05:06:02.208Z,89.17
2019-04-27T05:06:29.394Z,89.03
2019-04-27T05:07:22.266Z,88.51
2019-04-27T05:07:49.277Z,88.6
2019-04-27T05:08:42.598Z,88.22
2019-04-27T05:09:10.031Z,88.45
2019-04-27T05:10:02.318Z,88.31
2019-04-27T05:10:31.192Z,88.79
2019-04-27T05:11:22.623Z,89.46
2019-04-27T05:11:49.775Z,89.26
2019-04-27T05:12:42.119Z,89.36
2019-04-27T05:13:09.468Z,89.65
2019-04-27T05:14:01.748Z,89.26
2019-04-27T05:14:28.816Z,89.46
2019-04-27T05:15:21.172Z,89.26
2019-04-27T05:16:41.590Z,89.36
2019-04-27T05:17:09.235Z,89.46
2019-04-27T05:18:01.702Z,89.36
2019-04-27T05:18:29.266Z,89.55
2019-04-27T05:19:21.778Z,89.65
2019-04-27T05:19:49.078Z,89.6
2019-04-27T05:21:10.300Z,89.65
2019-04-27T05:22:02.614Z,89.31
2019-04-27T05:22:30.047Z,89.03
2019-04-27T05:23:22.355Z,88.45
2019-04-27T05:23:49.274Z,88.45
2019-04-27T05:24:42.543Z,87.6
2019-04-27T05:25:10.966Z,87.21
2019-04-27T05:26:31.313Z,86.83
2019-04-27T05:27:51.182Z,86.74
2019-04-27T05:29:11.618Z,86.02
2019-04-27T05:29:38.919Z,86.21
2019-04-27T05:30:32.023Z,86.3
2019-04-27T05:31:00.546Z,86.3
2019-04-27T05:31:52.454Z,85.73
2019-04-27T05:32:18.797Z,85.45
2019-04-27T05:33:11.531Z,85.64
2019-04-27T05:34:30.438Z,85.45
2019-04-27T05:35:22.750Z,85.73
2019-04-27T05:35:50.863Z,85.16
2019-04-27T05:37:11.593Z,84.59
2019-04-27T05:37:39.006Z,84.3
2019-04-27T05:39:01.407Z,83.87
2019-04-27T05:39:30.050Z,84.06
2019-04-27T05:40:22.346Z,83.96
2019-04-27T05:40:49.865Z,83.92
2019-04-27T05:42:10.881Z,83.87
2019-04-27T05:43:33.237Z,83.2
2019-04-27T05:43:59.110Z,83.83
2019-04-27T05:45:22.762Z,84.78
2019-04-27T05:45:53.140Z,84.49
2019-04-27T05:47:43.263Z,84.49
2019-04-27T05:48:09.211Z,84.4
2019-04-27T05:49:06.129Z,83.92
2019-04-27T05:49:30.278Z,84.06
2019-04-27T05:50:58.678Z,83.44
2019-04-27T05:51:20.805Z,84.4
2019-04-27T05:51:49.667Z,84.16
2019-04-27T05:52:42.336Z,83.73
2019-04-27T05:53:09.461Z,83.35
2019-04-27T05:54:01.742Z,83.39
2019-04-27T05:54:29.386Z,83.83
2019-04-27T05:55:21.180Z,84.06
2019-04-27T05:56:41.827Z,84.3
2019-04-27T05:57:09.460Z,83.96
2019-04-27T05:58:01.441Z,83.77
2019-04-27T05:59:22.841Z,83.92
2019-04-27T05:59:50.314Z,83.92
2019-04-27T06:01:11.213Z,83.29
2019-04-27T06:02:31.379Z,83.48
2019-04-27T06:03:51.778Z,83.01
2019-04-27T06:04:19.239Z,82.72
2019-04-27T06:05:12.184Z,83.29
2019-04-27T06:05:39.700Z,82.91
2019-04-27T06:07:01.089Z,82.91
2019-04-27T06:08:21.052Z,82
2019-04-27T06:09:40.991Z,81.81
2019-04-27T06:11:00.401Z,81.77
2019-04-27T06:11:52.687Z,81.52
2019-04-27T06:12:19.831Z,81.77
2019-04-27T06:13:12.127Z,81.77
2019-04-27T06:13:39.176Z,81.86
2019-04-27T06:14:31.557Z,82.06
2019-04-27T06:14:59.289Z,81.77
2019-04-27T06:15:51.594Z,81.96
2019-04-27T06:16:19.243Z,80.95
2019-04-27T06:17:12.025Z,80.95
2019-04-27T06:17:39.184Z,80.95
2019-04-27T06:18:31.462Z,80.95
2019-04-27T06:19:50.909Z,80.28
2019-04-27T06:21:10.350Z,80.47
2019-04-27T06:22:02.639Z,80.41
2019-04-27T06:22:29.768Z,80.19
2019-04-27T06:23:22.055Z,79.8
2019-04-27T06:23:49.186Z,80.61
2019-04-27T06:24:41.465Z,80.04
2019-04-27T06:25:11.646Z,79.46
2019-04-27T06:26:30.758Z,79.71
2019-04-27T06:27:50.254Z,80.04
2019-04-27T06:28:42.566Z,79.65
2019-04-27T06:29:09.708Z,79.08
2019-04-27T06:30:04.757Z,79.17
2019-04-27T06:30:29.812Z,79.85
2019-04-27T06:31:22.094Z,79.27
2019-04-27T06:31:49.589Z,79.85
2019-04-27T06:32:42.350Z,78.6
2019-04-27T06:33:09.518Z,78.41
2019-04-27T06:34:31.235Z,78.45
2019-04-27T06:35:50.645Z,77.84
2019-04-27T06:37:10.621Z,78.36
2019-04-27T06:38:31.608Z,77.3
2019-04-27T06:38:58.892Z,77.4
2019-04-27T06:39:51.989Z,76.64
2019-04-27T06:40:18.708Z,76.82
2019-04-27T06:41:11.932Z,76.54
2019-04-27T06:41:39.697Z,77.5
2019-04-27T06:43:01.247Z,77.97
2019-04-27T06:44:21.649Z,77.3
2019-04-27T06:44:49.343Z,77.5
2019-04-27T06:45:41.781Z,77.78
2019-04-27T06:46:08.783Z,77.69
2019-04-27T06:47:01.439Z,77.97
2019-04-27T06:48:21.846Z,77.78
2019-04-27T06:48:49.533Z,76.45
2019-04-27T06:49:42.267Z,76.54
2019-04-27T06:50:09.258Z,77.3
2019-04-27T06:51:03.465Z,78.36
2019-04-27T06:51:30.077Z,78.07
2019-04-27T06:52:22.356Z,77.97
2019-04-27T06:52:49.469Z,77.87
2019-04-27T06:53:41.786Z,77.11
2019-04-27T06:54:09.243Z,76.86
2019-04-27T06:55:02.191Z,76.73
2019-04-27T06:55:29.322Z,76.73
2019-04-27T06:56:21.625Z,76.67
2019-04-27T06:56:48.734Z,76.77
2019-04-27T06:57:41.360Z,75.78
2019-04-27T06:59:01.678Z,77.11
2019-04-27T06:59:28.816Z,77.11
2019-04-27T07:00:22.072Z,76.54
2019-04-27T07:00:49.670Z,76.1
2019-04-27T07:01:42.450Z,75.14
2019-04-27T07:02:09.610Z,75.14
2019-04-27T07:03:01.922Z,74.66
2019-04-27T07:03:28.881Z,74.85
2019-04-27T07:04:21.521Z,75.05
2019-04-27T07:05:41.372Z,75.05
2019-04-27T07:07:02.527Z,74.95
2019-04-27T07:07:30.016Z,75.05
2019-04-27T07:08:22.303Z,74.85
2019-04-27T07:08:49.794Z,74.85
2019-04-27T07:09:42.142Z,74.95
2019-04-27T07:10:09.274Z,74.85
2019-04-27T07:11:01.637Z,75.34
2019-04-27T07:11:29.547Z,75.81
2019-04-27T07:12:21.356Z,76.16
2019-04-27T07:13:41.081Z,76.92
2019-04-27T07:15:02.474Z,78.07
2019-04-27T07:15:29.627Z,77.87
2019-04-27T07:16:21.942Z,78.03
2019-04-27T07:16:48.770Z,78.36
2019-04-27T07:17:41.364Z,78.41
2019-04-27T07:19:00.926Z,78.79
2019-04-27T07:20:20.576Z,78.45
2019-04-27T07:21:18.656Z,77.97
2019-04-27T07:21:40.209Z,77.59
2019-04-27T07:22:32.397Z,77.5
2019-04-27T07:22:59.467Z,77.4
2019-04-27T07:23:52.347Z,77.3
2019-04-27T07:24:19.607Z,77.3
2019-04-27T07:25:12.009Z,77.5
2019-04-27T07:25:38.850Z,77.59
2019-04-27T07:26:31.700Z,76.92
2019-04-27T07:26:59.484Z,76.54
2019-04-27T07:27:52.185Z,76.64
2019-04-27T07:28:19.337Z,76.64
2019-04-27T07:29:11.645Z,77.59
2019-04-27T07:29:40.361Z,77.4
2019-04-27T07:31:00.211Z,77.01
2019-04-27T07:31:52.854Z,77.01
2019-04-27T07:32:19.983Z,77.11
2019-04-27T07:33:12.284Z,77.21
2019-04-27T07:33:39.616Z,77.11
2019-04-27T07:34:31.894Z,76.64
2019-04-27T07:34:59.025Z,77.21
2019-04-27T07:35:51.718Z,77.78
2019-04-27T07:36:18.839Z,77.15
2019-04-27T07:37:11.245Z,77.21
2019-04-27T07:38:30.865Z,77.15
2019-04-27T07:39:50.645Z,76.1
2019-04-27T07:41:10.068Z,76.57
2019-04-27T07:42:02.357Z,76.2
2019-04-27T07:42:31.995Z,76.2
2019-04-27T07:43:50.406Z,76.64
2019-04-27T07:44:42.706Z,76.45
2019-04-27T07:45:11.268Z,76.57
2019-04-27T07:46:31.754Z,77.21
2019-04-27T07:47:22.565Z,77.78
2019-04-27T07:47:49.838Z,77.4
2019-04-27T07:48:42.146Z,77.53
2019-04-27T07:49:09.401Z,77.4
2019-04-27T07:50:01.682Z,77.59
2019-04-27T07:50:29.036Z,77.69
2019-04-27T07:51:31.375Z,78.45
2019-04-27T07:51:49.796Z,78.83
2019-04-27T07:52:42.079Z,78.64
2019-04-27T07:53:09.187Z,79.02
2019-04-27T07:54:01.481Z,78.93
2019-04-27T07:55:20.699Z,79.41
2019-04-27T07:56:40.111Z,79.02
2019-04-27T07:57:32.400Z,80.7
2019-04-27T07:57:59.909Z,81.09
2019-04-27T07:59:20.517Z,83.47
2019-04-27T08:00:12.831Z,83.33
2019-04-27T08:00:39.959Z,83.51
2019-04-27T08:02:00.114Z,85.29
2019-04-27T08:03:20.036Z,87.2
2019-04-27T08:04:12.347Z,88.92
2019-04-27T08:04:40.020Z,89.87
2019-04-27T08:05:32.450Z,90.35
2019-04-27T08:05:58.874Z,92.26
2019-04-27T08:06:52.149Z,93.07
2019-04-27T08:07:19.730Z,93.26
2019-04-27T08:08:11.984Z,95.41
2019-04-27T08:08:39.617Z,95.65
2019-04-27T08:09:31.394Z,94.6
2019-04-27T08:10:50.311Z,95.94
2019-04-27T08:11:42.802Z,97.47
2019-04-27T08:12:10.855Z,98.61
2019-04-27T08:13:30.519Z,98.42
2019-04-27T08:14:22.806Z,99.99
2019-04-27T08:14:49.479Z,99.99
2019-04-27T08:15:41.981Z,99.23
2019-04-27T08:16:08.641Z,99.23
2019-04-27T08:17:01.432Z,99.99
2019-04-27T08:18:20.654Z,99.99
2019-04-27T08:19:40.619Z,99.99
2019-04-27T08:20:32.909Z,99.99
2019-04-27T08:21:00.024Z,99.99
2019-04-27T08:22:22.344Z,99.99
2019-04-27T08:22:49.746Z,99.99
2019-04-27T08:24:11.134Z,99.99
2019-04-27T08:25:30.967Z,99.99
2019-04-27T08:26:50.064Z,99.99
2019-04-27T08:27:42.358Z,99.99
2019-04-27T08:28:10.238Z,99.99
2019-04-27T08:29:01.814Z,99.99
2019-04-27T08:29:29.543Z,99.99
2019-04-27T08:30:21.270Z,99.99
2019-04-27T08:31:40.752Z,99.99
2019-04-27T08:33:01.159Z,99.99
2019-04-27T08:34:20.647Z,99.99
2019-04-27T08:35:41.439Z,99.99
2019-04-27T08:37:00.866Z,99.99
2019-04-27T08:38:20.612Z,99.99
2019-04-27T08:39:12.698Z,99.99
2019-04-27T08:39:40.112Z,99.99
2019-04-27T08:41:00.335Z,99.99
2019-04-27T08:41:52.730Z,99.99
2019-04-27T08:42:20.112Z,99.99
2019-04-27T08:43:12.400Z,99.99
2019-04-27T08:43:39.509Z,99.99
2019-04-27T08:44:31.938Z,99.99
2019-04-27T08:44:59.368Z,99.99
2019-04-27T08:45:51.388Z,99.99
2019-04-27T08:47:10.488Z,99.99
2019-04-27T08:48:02.814Z,99.99
2019-04-27T08:48:34.514Z,99.99
2019-04-27T08:48:58.652Z,99.99
2019-04-27T08:49:52.006Z,99.99
2019-04-27T08:50:19.289Z,99.99
2019-04-27T08:51:11.511Z,99.99
2019-04-27T08:52:31.903Z,99.99
2019-04-27T08:52:58.039Z,99.99
2019-04-27T08:53:50.814Z,99.99
2019-04-27T08:55:11.232Z,99.99
2019-04-27T08:56:30.646Z,99.99
2019-04-27T08:57:50.065Z,99.99
2019-04-27T08:58:42.351Z,99.99
2019-04-27T08:59:09.607Z,99.99
2019-04-27T09:00:01.846Z,99.99
2019-04-27T09:00:29.102Z,99.99
2019-04-27T09:01:21.283Z,99.99
2019-04-27T09:02:46.931Z,99.99
2019-04-27T09:03:10.079Z,99.99
2019-04-27T09:04:02.367Z,99.99
2019-04-27T09:04:29.489Z,99.99
2019-04-27T09:05:21.813Z,99.99
2019-04-27T09:05:48.981Z,99.99
2019-04-27T09:06:41.681Z,99.99
2019-04-27T09:07:08.784Z,99.99
2019-04-27T09:08:02.560Z,99.99
2019-04-27T09:08:29.708Z,99.99
2019-04-27T09:09:50.444Z,99.99
2019-04-27T09:10:42.732Z,99.99
2019-04-27T09:11:09.851Z,99.99
2019-04-27T09:12:02.486Z,99.99
2019-04-27T09:12:30.110Z,99.99
2019-04-27T09:12:58.847Z,99.99
2019-04-27T09:13:51.752Z,99.99
2019-04-27T09:14:19.263Z,99.99
2019-04-27T09:15:11.323Z,99.99
2019-04-27T09:16:32.020Z,99.99
2019-04-27T09:17:02.180Z,99.99
2019-04-27T09:17:51.972Z,99.99
2019-04-27T09:18:19.159Z,99.99
2019-04-27T09:19:12.414Z,99.99
2019-04-27T09:19:39.542Z,99.99
2019-04-27T09:20:32.336Z,99.99
2019-04-27T09:20:59.464Z,99.99
2019-04-27T09:21:52.455Z,99.99
2019-04-27T09:22:20.713Z,99.99
2019-04-27T09:23:40.304Z,99.99
2019-04-27T09:24:32.754Z,99.99
2019-04-27T09:24:59.968Z,99.99
2019-04-27T09:25:52.695Z,99.99
2019-04-27T09:26:20.824Z,99.99
2019-04-27T09:27:40.866Z,99.99
2019-04-27T09:28:59.866Z,99.99
2019-04-27T09:30:20.785Z,99.99
2019-04-27T09:31:40.549Z,99.99
2019-04-27T09:33:01.350Z,99.99
2019-04-27T09:34:19.958Z,99.99
2019-04-27T09:35:12.246Z,99.99
2019-04-27T09:35:38.378Z,99.99
2019-04-27T09:36:30.690Z,99.99
2019-04-27T09:37:49.239Z,99.99
2019-04-27T09:38:41.525Z,99.99
2019-04-27T09:39:59.950Z,99.99
2019-04-27T09:40:52.284Z,99.99
2019-04-27T09:41:18.428Z,99.99
2019-04-27T09:42:10.725Z,99.99
2019-04-27T09:43:29.171Z,99.99
2019-04-27T09:44:22.461Z,99.99
2019-04-27T09:44:48.601Z,99.99
2019-04-27T09:45:40.879Z,99.99
2019-04-27T09:46:59.329Z,99.99
2019-04-27T09:47:51.703Z,99.99
2019-04-27T09:48:17.857Z,99.99
2019-04-27T09:49:12.104Z,99.99
2019-04-27T09:50:29.557Z,99.99
2019-04-27T09:51:21.839Z,99.99
2019-04-27T09:51:47.980Z,99.99
2019-04-27T09:52:41.259Z,99.99
2019-04-27T09:53:59.695Z,99.99
2019-04-27T09:54:52.035Z,99.99
2019-04-27T09:55:19.026Z,99.99
2019-04-27T09:56:11.339Z,99.99
2019-04-27T09:57:29.768Z,99.99
2019-04-27T09:58:22.065Z,99.99
2019-04-27T09:58:48.208Z,99.99
2019-04-27T09:59:40.496Z,99.99
2019-04-27T10:00:32.786Z,99.99
2019-04-27T10:00:58.923Z,99.99
2019-04-27T10:01:51.211Z,99.99
2019-04-27T10:03:09.693Z,99.99
2019-04-27T10:04:01.995Z,99.99
2019-04-27T10:04:28.126Z,99.99
2019-04-27T10:05:20.417Z,99.99
2019-04-27T10:06:12.727Z,99.99
2019-04-27T10:06:39.858Z,99.99
2019-04-27T10:07:32.139Z,99.99
2019-04-27T10:07:58.314Z,99.99
2019-04-27T10:08:50.599Z,99.99
2019-04-27T10:09:42.881Z,99.99
2019-04-27T10:10:09.016Z,99.99
2019-04-27T10:11:01.357Z,99.99
2019-04-27T10:12:19.785Z,99.99
2019-04-27T10:13:12.064Z,99.99
2019-04-27T10:13:38.192Z,99.99
2019-04-27T10:14:30.525Z,99.99
2019-04-27T10:15:22.809Z,99.99
2019-04-27T10:15:48.981Z,99.99
2019-04-27T10:16:41.264Z,99.99
2019-04-27T10:17:59.682Z,99.99
2019-04-27T10:18:51.966Z,99.99
2019-04-27T10:19:28.056Z,99.99
2019-04-27T10:20:12.729Z,99.99
2019-04-27T10:20:40.970Z,99.99
2019-04-27T10:21:59.807Z,99.99
2019-04-27T10:23:19.303Z,99.99
2019-04-27T10:24:11.593Z,99.99
2019-04-27T10:24:37.721Z,99.99
2019-04-27T10:25:30.016Z,99.99
2019-04-27T10:26:22.297Z,99.99
2019-04-27T10:26:48.458Z,99.99
2019-04-27T10:27:40.769Z,99.99
2019-04-27T10:28:59.192Z,99.99
2019-04-27T10:29:51.495Z,99.99
2019-04-27T10:31:09.924Z,99.99
2019-04-27T10:32:02.209Z,99.99
2019-04-27T10:32:28.372Z,99.99
2019-04-27T10:33:20.680Z,99.99
2019-04-27T10:34:39.098Z,99.99
2019-04-27T10:35:31.386Z,99.99
2019-04-27T10:36:49.866Z,99.99
2019-04-27T10:37:42.372Z,99.99
2019-04-27T10:38:08.502Z,99.99
2019-04-27T10:39:00.808Z,99.99
2019-04-27T10:39:27.939Z,99.99
2019-04-27T10:40:20.237Z,99.99
2019-04-27T10:41:12.539Z,99.99
2019-04-27T10:41:38.725Z,99.99
2019-04-27T10:42:31.007Z,99.99
2019-04-27T10:43:49.432Z,99.99
2019-04-27T10:44:41.724Z,99.99
2019-04-27T10:45:07.889Z,99.99
2019-04-27T10:46:00.163Z,99.99
2019-04-27T10:46:52.495Z,99.99
2019-04-27T10:47:18.688Z,99.99
2019-04-27T10:48:11.058Z,99.99
2019-04-27T10:49:29.589Z,99.99
2019-04-27T10:50:21.928Z,99.99
2019-04-27T10:50:48.073Z,99.99
2019-04-27T10:51:40.375Z,99.99